createdAt,value
2022-09-30T00:01:33.690Z,10.10
2022-09-30T00:04:02.277Z,10.10
2022-09-30T00:06:31.105Z,10.20
2022-09-30T00:08:59.662Z,10.20
2022-09-30T00:11:29.628Z,10.20
2022-09-30T00:13:58.150Z,10.20
2022-09-30T00:16:29.833Z,10.10
2022-09-30T00:18:58.778Z,10.10
2022-09-30T00:21:27.980Z,10.20
2022-09-30T00:23:56.102Z,10.20
2022-09-30T00:26:25.568Z,10.20
2022-09-30T00:28:56.473Z,10.20
2022-09-30T00:31:25.613Z,10.20
2022-09-30T00:34:07.923Z,10.20
2022-09-30T00:36:38.074Z,10.20
2022-09-30T00:39:08.112Z,10.20
2022-09-30T00:41:36.329Z,10.20
2022-09-30T00:44:19.051Z,10.20
2022-09-30T00:46:46.952Z,10.20
2022-09-30T00:49:20.681Z,10.20
2022-09-30T00:51:51.819Z,10.10
2022-09-30T00:54:22.534Z,10.20
2022-09-30T00:56:53.700Z,10.20
2022-09-30T00:59:26.596Z,10.10
2022-09-30T01:01:55.806Z,10.10
2022-09-30T01:04:27.596Z,10.20
2022-09-30T01:06:55.563Z,10.10
2022-09-30T01:09:23.513Z,10.20
2022-09-30T01:11:51.450Z,10.20
2022-09-30T01:14:23.021Z,10.20
2022-09-30T01:16:58.914Z,10.20
2022-09-30T01:20:06.750Z,10.10
2022-09-30T01:22:43.357Z,10.10
2022-09-30T01:25:54.088Z,10.10
2022-09-30T01:28:44.584Z,10.10
2022-09-30T01:31:26.143Z,10.00
2022-09-30T01:33:59.930Z,10.00
2022-09-30T01:36:44.464Z,10.00
2022-09-30T01:39:22.595Z,9.90
2022-09-30T01:41:55.591Z,9.90
2022-09-30T01:44:35.096Z,9.80
2022-09-30T01:47:13.319Z,9.90
2022-09-30T01:49:48.411Z,9.80
2022-09-30T01:52:21.771Z,9.70
2022-09-30T01:54:56.486Z,9.60
2022-09-30T01:57:29.785Z,9.60
2022-09-30T02:00:03.224Z,9.50
2022-09-30T02:02:34.315Z,9.50
2022-09-30T02:05:06.164Z,9.50
2022-09-30T02:07:37.502Z,9.50
2022-09-30T02:10:12.898Z,9.50
2022-09-30T02:12:46.520Z,9.50
2022-09-30T02:15:18.668Z,9.50
2022-09-30T02:17:50.289Z,9.70
2022-09-30T02:20:22.878Z,9.60
2022-09-30T02:22:54.259Z,9.70
2022-09-30T02:25:27.362Z,9.70
2022-09-30T02:27:59.472Z,9.70
2022-09-30T02:30:28.476Z,9.70
2022-09-30T02:33:01.811Z,9.70
2022-09-30T02:35:35.548Z,9.70
2022-09-30T02:38:06.382Z,9.70
2022-09-30T02:40:39.975Z,9.80
2022-09-30T02:43:09.094Z,9.80
2022-09-30T02:45:44.149Z,9.90
2022-09-30T02:48:23.421Z,9.90
2022-09-30T02:50:55.544Z,9.80
2022-09-30T02:53:28.731Z,9.70
2022-09-30T02:56:09.748Z,9.60
2022-09-30T02:58:39.705Z,9.60
2022-09-30T03:01:08.529Z,9.60
2022-09-30T03:03:42.026Z,9.50
2022-09-30T03:06:11.482Z,9.50
2022-09-30T03:08:39.459Z,9.50
2022-09-30T03:11:08.350Z,9.40
2022-09-30T03:14:10.778Z,9.30
2022-09-30T03:16:56.801Z,9.30
2022-09-30T03:19:42.279Z,9.30
2022-09-30T03:22:28.355Z,9.30
2022-09-30T03:25:12.365Z,9.30
2022-09-30T03:27:48.796Z,9.40
2022-09-30T03:30:23.614Z,9.40
2022-09-30T03:33:04.604Z,9.30
2022-09-30T03:35:42.533Z,9.30
2022-09-30T03:38:15.682Z,9.30
2022-09-30T03:40:51.718Z,9.40
2022-09-30T03:43:26.662Z,9.40
2022-09-30T03:46:01.116Z,9.40
2022-09-30T03:48:30.888Z,9.40
2022-09-30T03:51:01.460Z,9.40
2022-09-30T03:53:29.608Z,9.50
2022-09-30T03:55:57.571Z,9.40
2022-09-30T03:58:26.576Z,9.60
2022-09-30T04:00:57.061Z,9.50
2022-09-30T04:03:26.430Z,9.50
2022-09-30T04:05:54.286Z,9.50
2022-09-30T04:08:23.449Z,9.50
2022-09-30T04:10:51.322Z,9.50
2022-09-30T04:13:19.139Z,9.50
2022-09-30T04:15:55.021Z,9.40
2022-09-30T04:18:22.880Z,9.40
2022-09-30T04:20:50.694Z,9.40
2022-09-30T04:23:18.585Z,9.40
2022-09-30T04:25:54.744Z,9.40
2022-09-30T04:28:23.154Z,9.30
2022-09-30T04:30:50.976Z,9.40
2022-09-30T04:33:18.822Z,9.40
2022-09-30T04:35:46.664Z,9.50
2022-09-30T04:38:14.503Z,9.50
2022-09-30T04:40:42.368Z,9.60
2022-09-30T04:43:11.544Z,9.60
2022-09-30T04:45:44.210Z,9.60
2022-09-30T04:48:12.534Z,9.60
2022-09-30T04:50:40.502Z,9.50
2022-09-30T04:53:08.383Z,9.50
2022-09-30T04:55:36.598Z,9.40
2022-09-30T04:58:04.528Z,9.40
2022-09-30T05:00:33.751Z,9.30
2022-09-30T05:03:01.608Z,9.30
2022-09-30T05:05:29.496Z,9.30
2022-09-30T05:08:01.448Z,9.20
2022-09-30T05:10:29.944Z,9.10
2022-09-30T05:12:58.256Z,9.10
2022-09-30T05:15:26.514Z,9.10
2022-09-30T05:17:55.704Z,9.00
2022-09-30T05:20:23.531Z,9.00
2022-09-30T05:22:55.968Z,9.00
2022-09-30T05:25:24.422Z,8.90
2022-09-30T05:27:52.506Z,8.80
2022-09-30T05:30:20.318Z,8.70
2022-09-30T05:32:48.139Z,8.60
2022-09-30T05:35:17.552Z,8.60
2022-09-30T05:37:45.357Z,8.50
2022-09-30T05:40:13.304Z,8.50
2022-09-30T05:42:41.123Z,8.40
2022-09-30T05:45:10.341Z,8.40
2022-09-30T05:47:38.148Z,8.50
2022-09-30T05:50:07.093Z,8.40
2022-09-30T05:52:36.272Z,8.40
2022-09-30T05:55:04.237Z,8.40
2022-09-30T05:57:32.069Z,8.40
2022-09-30T05:59:59.900Z,8.40
2022-09-30T06:02:27.801Z,8.50
2022-09-30T06:04:55.896Z,8.60
2022-09-30T06:07:23.731Z,8.50
2022-09-30T06:09:52.939Z,8.50
2022-09-30T06:12:20.757Z,8.50
2022-09-30T06:14:48.611Z,8.50
2022-09-30T06:17:19.250Z,8.60
2022-09-30T06:19:47.065Z,8.70
2022-09-30T06:22:16.048Z,8.80
2022-09-30T06:24:43.896Z,8.80
2022-09-30T06:27:13.417Z,8.80
2022-09-30T06:29:41.258Z,8.80
2022-09-30T06:32:09.083Z,8.80
2022-09-30T06:34:36.918Z,8.80
2022-09-30T06:37:04.765Z,8.90
2022-09-30T06:39:32.587Z,9.00
2022-09-30T06:42:00.574Z,9.10
2022-09-30T06:44:29.864Z,9.20
2022-09-30T06:46:59.784Z,9.30
2022-09-30T06:49:35.481Z,9.40
2022-09-30T06:52:09.868Z,9.50
2022-09-30T06:54:37.688Z,9.60
2022-09-30T06:57:05.590Z,9.70
2022-09-30T06:59:34.767Z,9.70
2022-09-30T07:02:02.588Z,9.70
2022-09-30T07:04:30.459Z,9.70
2022-09-30T07:06:58.301Z,9.70
2022-09-30T07:09:26.253Z,9.80
2022-09-30T07:11:54.263Z,9.80
2022-09-30T07:14:23.440Z,9.70
2022-09-30T07:16:53.659Z,9.70
2022-09-30T07:19:22.907Z,9.70
2022-09-30T07:21:51.356Z,9.70
2022-09-30T07:24:19.775Z,9.70
2022-09-30T07:26:47.587Z,9.60
2022-09-30T07:29:15.707Z,9.80
2022-09-30T07:31:43.704Z,9.70
2022-09-30T07:34:13.062Z,9.60
2022-09-30T07:36:41.897Z,9.60
2022-09-30T07:39:11.767Z,9.70
2022-09-30T07:41:40.978Z,9.80
2022-09-30T07:44:13.175Z,9.80
2022-09-30T07:46:41.701Z,9.90
2022-09-30T07:49:14.710Z,9.90
2022-09-30T07:51:45.317Z,9.80
2022-09-30T07:54:16.161Z,9.90
2022-09-30T07:59:33.905Z,9.90
2022-09-30T08:02:01.943Z,10.00
2022-09-30T08:04:31.454Z,9.90
2022-09-30T08:07:01.422Z,10.00
2022-09-30T08:09:31.188Z,10.10
2022-09-30T08:11:59.524Z,10.10
2022-09-30T08:14:28.799Z,10.10
2022-09-30T08:16:58.327Z,10.20
2022-09-30T08:19:27.702Z,10.30
2022-09-30T08:21:57.578Z,10.40
2022-09-30T08:24:26.660Z,10.40
2022-09-30T08:26:55.244Z,10.50
2022-09-30T08:29:53.281Z,10.50
2022-09-30T08:32:11.254Z,10.50
2022-09-30T08:34:39.098Z,10.50
2022-09-30T08:37:10.216Z,10.50
2022-09-30T08:39:38.330Z,10.50
2022-09-30T08:42:40.586Z,10.60
2022-09-30T08:45:22.638Z,10.70
2022-09-30T08:47:57.320Z,10.90
2022-09-30T08:50:34.590Z,10.90
2022-09-30T08:53:10.770Z,10.80
2022-09-30T08:55:42.357Z,10.90
2022-09-30T08:58:21.697Z,10.90
2022-09-30T09:00:51.461Z,11.00
2022-09-30T09:03:20.447Z,11.10
2022-09-30T09:05:54.776Z,11.30
2022-09-30T09:08:37.130Z,11.50
2022-09-30T09:11:15.236Z,11.70
2022-09-30T09:13:51.016Z,11.80
2022-09-30T09:16:25.059Z,11.80
2022-09-30T09:19:00.119Z,12.00
2022-09-30T09:21:38.599Z,12.10
2022-09-30T09:24:15.972Z,12.10
2022-09-30T09:26:43.904Z,12.20
2022-09-30T09:29:27.464Z,12.80
2022-09-30T09:31:55.817Z,13.10
2022-09-30T09:34:25.345Z,13.20
2022-09-30T09:37:09.808Z,13.30
2022-09-30T09:40:04.686Z,13.10
2022-09-30T09:42:44.674Z,13.00
2022-09-30T09:45:17.483Z,13.00
2022-09-30T09:47:51.778Z,12.90
2022-09-30T09:50:28.636Z,12.90
2022-09-30T09:53:10.568Z,12.90
2022-09-30T09:55:39.715Z,12.70
2022-09-30T09:58:10.432Z,12.50
2022-09-30T10:00:55.986Z,12.50
2022-09-30T10:03:26.458Z,12.50
2022-09-30T10:06:02.665Z,12.50
2022-09-30T10:08:31.748Z,12.50
2022-09-30T10:11:03.467Z,12.50
2022-09-30T10:13:33.689Z,12.50
2022-09-30T10:16:02.939Z,12.40
2022-09-30T10:18:34.155Z,12.40
2022-09-30T10:21:03.811Z,12.40
2022-09-30T10:23:33.990Z,12.40
2022-09-30T10:26:07.705Z,12.40
2022-09-30T10:28:46.537Z,12.30
2022-09-30T10:31:18.677Z,12.30
2022-09-30T10:33:49.396Z,12.30
2022-09-30T10:36:19.626Z,12.30
2022-09-30T10:38:54.819Z,12.30
2022-09-30T10:41:26.662Z,12.30
2022-09-30T10:43:57.479Z,12.30
2022-09-30T10:46:28.554Z,12.20
2022-09-30T10:48:58.957Z,12.30
2022-09-30T10:51:30.659Z,12.40
2022-09-30T10:53:58.781Z,12.50
2022-09-30T10:56:46.057Z,12.70
2022-09-30T10:59:24.960Z,12.90
2022-09-30T11:01:57.604Z,13.30
2022-09-30T11:04:32.944Z,13.60
2022-09-30T11:07:10.807Z,13.70
2022-09-30T11:09:45.616Z,13.80
2022-09-30T11:12:20.835Z,13.80
2022-09-30T11:14:54.526Z,14.30
2022-09-30T11:17:34.864Z,14.80
2022-09-30T11:20:12.778Z,14.90
2022-09-30T11:22:48.160Z,14.80
2022-09-30T11:25:18.241Z,14.60
2022-09-30T11:28:06.940Z,14.50
2022-09-30T11:30:43.422Z,14.30
2022-09-30T11:33:29.473Z,14.20
2022-09-30T11:36:05.618Z,14.00
2022-09-30T11:39:01.813Z,14.30
2022-09-30T11:41:33.520Z,14.50
2022-09-30T11:44:14.963Z,14.60
2022-09-30T11:47:08.622Z,14.60
2022-09-30T11:49:57.797Z,14.80
2022-09-30T11:52:31.256Z,15.00
2022-09-30T11:55:23.522Z,15.10
2022-09-30T11:58:08.418Z,15.30
2022-09-30T12:00:50.627Z,15.50
2022-09-30T12:03:23.754Z,15.40
2022-09-30T12:05:55.961Z,15.40
2022-09-30T12:08:29.453Z,15.40
2022-09-30T12:11:02.534Z,15.40
2022-09-30T12:13:36.321Z,15.40
2022-09-30T12:16:10.870Z,15.30
2022-09-30T12:18:42.573Z,15.30
2022-09-30T12:21:19.263Z,15.20
2022-09-30T12:23:50.496Z,15.30
2022-09-30T12:26:18.865Z,15.30
2022-09-30T12:29:10.367Z,15.40
2022-09-30T12:32:09.431Z,15.40
2022-09-30T12:34:54.259Z,15.10
2022-09-30T12:37:46.733Z,15.00
2022-09-30T12:40:52.362Z,15.20
2022-09-30T12:43:56.311Z,15.30
2022-09-30T12:46:42.390Z,15.30
2022-09-30T12:49:17.819Z,15.30
2022-09-30T12:51:49.793Z,15.40
2022-09-30T12:54:20.286Z,15.40
2022-09-30T12:56:54.525Z,15.50
2022-09-30T12:59:28.062Z,15.50
2022-09-30T13:01:57.747Z,15.30
2022-09-30T13:04:37.234Z,15.10
2022-09-30T13:07:21.755Z,15.20
2022-09-30T13:10:23.615Z,15.20
2022-09-30T13:13:17.836Z,15.10
2022-09-30T13:15:46.595Z,15.10
2022-09-30T13:18:47.847Z,15.00
2022-09-30T13:21:23.612Z,14.90
2022-09-30T13:23:52.186Z,14.80
2022-09-30T13:26:46.265Z,14.70
2022-09-30T13:29:50.314Z,14.70
2022-09-30T13:32:37.241Z,14.70
2022-09-30T13:35:31.838Z,14.60
2022-09-30T13:38:20.095Z,14.60
2022-09-30T13:41:01.839Z,14.60
2022-09-30T13:43:35.791Z,14.60
2022-09-30T13:46:09.104Z,14.50
2022-09-30T13:48:40.399Z,14.50
2022-09-30T13:51:12.198Z,14.50
2022-09-30T13:53:45.976Z,14.40
2022-09-30T13:56:21.354Z,14.40
2022-09-30T13:59:10.324Z,14.40
2022-09-30T14:02:01.791Z,14.40
2022-09-30T14:04:51.062Z,14.50
2022-09-30T14:07:32.177Z,14.30
2022-09-30T14:10:27.297Z,14.40
2022-09-30T14:13:11.359Z,14.60
2022-09-30T14:16:22.808Z,14.40
2022-09-30T14:19:11.446Z,14.30
2022-09-30T14:21:43.694Z,14.30
2022-09-30T14:24:16.079Z,14.30
2022-09-30T14:27:09.224Z,14.40
2022-09-30T14:29:47.976Z,14.60
2022-09-30T14:32:20.200Z,14.50
2022-09-30T14:34:49.775Z,14.40
2022-09-30T14:37:24.269Z,14.40
2022-09-30T14:39:52.255Z,14.40
2022-09-30T14:42:29.676Z,14.50
2022-09-30T14:45:04.280Z,14.60
2022-09-30T14:47:34.735Z,14.60
2022-09-30T14:50:03.704Z,14.50
2022-09-30T14:52:42.686Z,14.70
2022-09-30T14:55:27.028Z,14.60
2022-09-30T14:58:13.908Z,14.60
2022-09-30T15:00:41.855Z,14.50
2022-09-30T15:03:12.899Z,14.50
2022-09-30T15:05:41.334Z,14.40
2022-09-30T15:08:12.937Z,14.20
2022-09-30T15:10:48.359Z,14.10
2022-09-30T15:13:19.699Z,14.10
2022-09-30T15:15:47.584Z,14.20
2022-09-30T15:18:30.473Z,14.20
2022-09-30T15:21:01.305Z,14.20
2022-09-30T15:23:32.721Z,14.20
2022-09-30T15:26:01.618Z,14.10
2022-09-30T15:28:30.931Z,14.10
2022-09-30T15:30:59.854Z,14.00
2022-09-30T15:33:31.698Z,14.00
2022-09-30T15:36:05.546Z,14.10
2022-09-30T15:38:35.378Z,14.10
2022-09-30T15:41:08.106Z,14.00
2022-09-30T15:43:43.097Z,14.00
2022-09-30T15:46:28.666Z,14.00
2022-09-30T15:49:05.820Z,14.00
2022-09-30T15:51:36.863Z,14.00
2022-09-30T15:54:32.886Z,14.00
2022-09-30T15:57:03.193Z,14.00
2022-09-30T15:59:59.659Z,13.90
2022-09-30T16:02:28.768Z,14.00
2022-09-30T16:04:57.689Z,14.00
2022-09-30T16:07:28.408Z,13.90
2022-09-30T16:09:59.030Z,13.80
2022-09-30T16:12:30.985Z,13.80
2022-09-30T16:15:08.019Z,13.80
2022-09-30T16:17:38.621Z,13.80
2022-09-30T16:20:08.869Z,13.90
2022-09-30T16:22:54.316Z,13.70
2022-09-30T16:25:26.487Z,13.60
2022-09-30T16:27:59.225Z,13.60
2022-09-30T16:30:29.944Z,13.60
2022-09-30T16:33:03.505Z,13.60
2022-09-30T16:35:31.355Z,13.50
2022-09-30T16:38:01.631Z,13.50
2022-09-30T16:40:31.253Z,13.60
2022-09-30T16:43:01.305Z,13.70
2022-09-30T16:45:32.890Z,13.40
2022-09-30T16:48:02.481Z,13.20
2022-09-30T16:50:35.715Z,13.20
2022-09-30T16:53:03.576Z,13.20
2022-09-30T16:55:31.578Z,13.10
2022-09-30T16:58:00.259Z,13.10
2022-09-30T17:00:28.852Z,12.90
2022-09-30T17:02:58.699Z,12.80
2022-09-30T17:05:27.924Z,12.70
2022-09-30T17:07:57.104Z,12.70
2022-09-30T17:10:27.978Z,12.60
2022-09-30T17:12:56.115Z,12.50
2022-09-30T17:15:24.444Z,12.40
2022-09-30T17:17:52.683Z,12.40
2022-09-30T17:20:22.810Z,12.30
2022-09-30T17:22:50.649Z,12.30
2022-09-30T17:25:19.369Z,12.20
2022-09-30T17:27:49.813Z,12.10
2022-09-30T17:30:17.990Z,12.00
2022-09-30T17:32:46.508Z,11.80
2022-09-30T17:35:14.608Z,11.80
2022-09-30T17:37:46.389Z,11.80
2022-09-30T17:40:32.295Z,11.80
2022-09-30T17:43:10.855Z,11.70
2022-09-30T17:45:40.720Z,11.60
2022-09-30T17:48:09.277Z,11.60
2022-09-30T17:50:38.440Z,11.50
2022-09-30T17:53:07.758Z,11.40
2022-09-30T17:55:35.732Z,11.40
2022-09-30T17:58:03.914Z,11.40
2022-09-30T18:00:32.526Z,11.30
2022-09-30T18:03:00.521Z,11.20
2022-09-30T18:05:28.341Z,11.10
2022-09-30T18:07:57.140Z,11.00
2022-09-30T18:10:26.963Z,10.90
2022-09-30T18:12:56.122Z,10.80
2022-09-30T18:15:24.525Z,10.80
2022-09-30T18:17:52.398Z,10.70
2022-09-30T18:20:23.322Z,10.60
2022-09-30T18:22:53.405Z,10.70
2022-09-30T18:25:21.238Z,10.60
2022-09-30T18:27:51.781Z,10.50
2022-09-30T18:30:21.574Z,10.40
2022-09-30T18:32:50.442Z,10.50
2022-09-30T18:35:20.167Z,10.40
2022-09-30T18:37:49.736Z,10.20
2022-09-30T18:40:18.238Z,10.10
2022-09-30T18:42:47.029Z,10.00
2022-09-30T18:45:16.280Z,10.10
2022-09-30T18:47:44.877Z,10.10
2022-09-30T18:50:13.784Z,10.20
2022-09-30T18:52:44.564Z,10.20
2022-09-30T18:55:12.405Z,10.20
2022-09-30T18:57:41.696Z,10.10
2022-09-30T19:00:11.038Z,10.00
2022-09-30T19:02:40.741Z,10.00
2022-09-30T19:05:09.492Z,9.90
2022-09-30T19:07:39.082Z,10.00
2022-09-30T19:10:08.015Z,10.00
2022-09-30T19:12:37.132Z,9.90
2022-09-30T19:15:05.349Z,9.80
2022-09-30T19:17:33.608Z,9.80
2022-09-30T19:20:03.235Z,9.70
2022-09-30T19:22:31.316Z,9.80
2022-09-30T19:24:59.215Z,9.80
2022-09-30T19:27:27.192Z,9.70
2022-09-30T19:29:59.263Z,9.70
2022-09-30T19:32:29.416Z,9.70
2022-09-30T19:35:05.638Z,9.70
2022-09-30T19:37:35.740Z,9.70
2022-09-30T19:40:16.039Z,9.80
2022-09-30T19:42:47.348Z,9.70
2022-09-30T19:45:16.551Z,9.70
2022-09-30T19:47:44.775Z,9.60
2022-09-30T19:50:12.585Z,9.60
2022-09-30T19:52:55.252Z,9.50
2022-09-30T19:55:25.138Z,9.40
2022-09-30T19:57:52.957Z,9.30
2022-09-30T20:00:20.840Z,9.30
2022-09-30T20:02:48.671Z,9.30
2022-09-30T20:05:18.411Z,9.30
2022-09-30T20:07:50.880Z,9.30
2022-09-30T20:10:18.826Z,9.30
2022-09-30T20:12:46.632Z,9.30
2022-09-30T20:15:31.631Z,9.40
2022-09-30T20:17:59.424Z,9.50
2022-09-30T20:20:36.965Z,9.60
2022-09-30T20:23:06.243Z,9.50
2022-09-30T20:25:35.577Z,9.50
2022-09-30T20:28:05.026Z,9.40
2022-09-30T20:30:33.795Z,9.30
2022-09-30T20:33:02.004Z,9.20
2022-09-30T20:35:29.824Z,9.20
2022-09-30T20:37:57.665Z,9.10
2022-09-30T20:40:26.877Z,9.10
2022-09-30T20:43:04.044Z,9.00
2022-09-30T20:45:31.975Z,9.10
2022-09-30T20:47:59.882Z,9.30
2022-09-30T20:50:36.657Z,9.50
2022-09-30T20:53:06.593Z,9.40
2022-09-30T20:55:37.572Z,9.40
2022-09-30T20:58:06.567Z,9.30
2022-09-30T21:00:35.951Z,9.30
2022-09-30T21:03:04.141Z,9.30
2022-09-30T21:05:32.011Z,9.40
2022-09-30T21:08:00.482Z,9.40
2022-09-30T21:10:29.705Z,9.40
2022-09-30T21:13:01.185Z,9.40
2022-09-30T21:15:31.200Z,9.40
2022-09-30T21:17:59.306Z,9.40
2022-09-30T21:20:27.175Z,9.40
2022-09-30T21:22:55.122Z,9.40
2022-09-30T21:25:23.231Z,9.40
2022-09-30T21:27:51.162Z,9.50
2022-09-30T21:30:20.695Z,9.50
2022-09-30T21:32:48.782Z,9.60
2022-09-30T21:35:17.210Z,9.60
2022-09-30T21:37:45.095Z,9.50
2022-09-30T21:40:13.184Z,9.40
2022-09-30T21:42:40.984Z,9.40
2022-09-30T21:45:10.040Z,9.40
2022-09-30T21:47:39.200Z,9.40
2022-09-30T21:50:08.096Z,9.50
2022-09-30T21:52:38.021Z,9.40
2022-09-30T21:55:07.231Z,9.50
2022-09-30T21:57:35.082Z,9.50
2022-09-30T22:00:03.585Z,9.50
2022-09-30T22:02:31.476Z,9.50
2022-09-30T22:05:00.711Z,9.50
2022-09-30T22:07:28.540Z,9.50
2022-09-30T22:09:56.370Z,9.40
2022-09-30T22:12:24.217Z,9.30
2022-09-30T22:14:52.453Z,9.30
2022-09-30T22:17:20.446Z,9.40
2022-09-30T22:19:48.777Z,9.40
2022-09-30T22:22:18.024Z,9.30
2022-09-30T22:24:47.081Z,9.20
2022-09-30T22:27:14.883Z,9.30
2022-09-30T22:29:42.715Z,9.30
2022-09-30T22:32:10.622Z,9.30
2022-09-30T22:34:56.043Z,9.30
2022-09-30T22:37:42.826Z,9.20
2022-09-30T22:40:11.309Z,9.10
2022-09-30T22:42:39.119Z,9.20
2022-09-30T22:45:08.060Z,9.20
2022-09-30T22:47:35.866Z,9.10
2022-09-30T22:50:03.937Z,9.20
2022-09-30T22:52:33.110Z,9.20
2022-09-30T22:55:00.957Z,9.20
2022-09-30T22:57:28.754Z,9.10
2022-09-30T22:59:58.902Z,9.10
2022-09-30T23:02:26.766Z,9.00
2022-09-30T23:04:54.592Z,9.00
2022-09-30T23:07:22.414Z,9.10
2022-09-30T23:09:51.638Z,9.00
2022-09-30T23:12:19.472Z,9.10
2022-09-30T23:14:47.309Z,9.00
2022-09-30T23:17:15.141Z,9.10
2022-09-30T23:19:42.999Z,9.10
2022-09-30T23:22:10.939Z,9.10
2022-09-30T23:24:38.767Z,9.10
2022-09-30T23:27:07.903Z,9.20
2022-09-30T23:29:35.731Z,9.10
2022-09-30T23:32:03.643Z,9.10
2022-09-30T23:34:31.583Z,9.10
2022-09-30T23:36:59.373Z,9.00
2022-09-30T23:39:27.248Z,9.00
2022-09-30T23:41:56.312Z,9.00
2022-09-30T23:44:28.531Z,9.00
2022-09-30T23:47:13.941Z,9.00
2022-09-30T23:49:43.103Z,9.00
2022-09-30T23:52:13.165Z,9.00
2022-09-30T23:54:41.615Z,9.00
2022-09-30T23:57:10.503Z,9.00
2022-09-30T23:59:40.107Z,8.90
